Nearby METAR Reports

 

EGKB - Biggin Hill, United Kingdom
Distance from station: S 5mi, 8km
Updated: 02/09/2014 20:20
NOT Current
Clear
Clear
 Wind from ENE
Wind: ENE 5 mph , 7 km/h
Temperature: 15°C
Dew Point: 13°C
Humidity: 88%
Barometer: 1024 hPa
Summary: Clear
Visibility: greater than 7 miles , 10 km
2014/09/02 19:20 EGKB 021920Z 07004KT CAVOK 15/13 Q1024
EGLC - London City Airp, United Kingdom
Distance from station: NNE 8mi, 13km
Updated: 03/09/2014 02:50
Mist, Mostly cloudy
Mist, Mostly cloudy
 Wind from ENE
Wind: ENE 6 mph , 9 km/h
Temperature: 16°C
Dew Point: 15°C
Humidity: 94%
Barometer: 1023 hPa
Summary: Mist
Clouds: Mostly cloudy
Visibility: 1 mile , 2 km
Cloud details: Mostly cloudy 61 m
2014/09/03 01:50 EGLC 030150Z AUTO 07005KT 1600 BR BKN002/// 16/15 Q1023
 
EGKK - London/Gatwick A, United Kingdom
Distance from station: SSW 19mi, 31km
Updated: 03/09/2014 02:50
Patches of fog, Mostly cloudy
Patches of fog, Mostly cloudy
 Wind from calm
Wind: Calm
Temperature: 12°C
Dew Point: 12°C
Humidity: 100%
Barometer: 1023 hPa
Summary: Patches of Fog
Clouds: Mostly cloudy
Visibility: 0 mile , 0 km
Cloud details: Few Clouds 61 m
Mostly cloudy 305 m
Mostly cloudy 427 m
2014/09/03 01:50 EGKK 030150Z AUTO 00000KT 0050 R08R/1400 BCFG FEW002 BKN010 BKN014 12/12 Q1023
EGLL - London/Heathrow, United Kingdom
Distance from station: WNW 21mi, 33km
Updated: 03/09/2014 02:50
Haze, Partly cloudy
Haze, Partly cloudy
 Wind from NE
Wind: NE 3 mph , 6 km/h
Temperature: 15°C
Dew Point: 13°C
Humidity: 88%
Barometer: 1023 hPa
Summary: Haze
Clouds: Partly cloudy
Visibility: 3 miles , 5 km
2014/09/03 01:50 EGLL 030150Z 04003KT 4700 HZ NSC 15/13 Q1023